Time;durP1;ratioP1;P1;durP2;ratioP2;P2;SDS_P1;SDS_P2;PMS_P1;PMS_P2;Temp;Humidity;BMP_temperature;BMP_pressure;BME280_temperature;BME280_humidity;BME280_pressure;Samples;Min_cycle;Max_cycle;Signal;HPM_P1;HPM_P2
2022/03/21 00:01:52;;;;;;;4.18;2.80;;;22.70;32.80;;;;;;5026616;28;20115;-43
2022/03/21 00:04:18;;;;;;;4.82;3.05;;;22.70;32.80;;;;;;5027113;28;20473;-44
2022/03/21 00:06:44;;;;;;;5.15;2.95;;;22.70;32.80;;;;;;5026661;28;20026;-43
2022/03/21 00:09:10;;;;;;;4.82;2.92;;;22.70;32.80;;;;;;5025475;28;20030;-43
2022/03/21 00:11:35;;;;;;;4.00;2.33;;;22.70;32.80;;;;;;5025713;28;20029;-43
2022/03/21 00:14:01;;;;;;;4.45;2.70;;;22.70;32.80;;;;;;5026621;28;20056;-43
2022/03/21 00:16:27;;;;;;;4.10;2.83;;;22.70;32.80;;;;;;5026396;28;20025;-43
2022/03/21 00:18:53;;;;;;;3.88;2.58;;;22.60;32.70;;;;;;5026785;28;20030;-43
2022/03/21 00:21:19;;;;;;;4.25;2.83;;;22.70;32.80;;;;;;5025444;28;20711;-44
2022/03/21 00:23:47;;;;;;;4.32;2.78;;;22.60;32.70;;;;;;5026577;28;20033;-43
2022/03/21 00:26:15;;;;;;;4.05;2.40;;;22.60;32.70;;;;;;5026156;28;20033;-44
2022/03/21 00:28:41;;;;;;;4.55;2.70;;;22.60;32.70;;;;;;5026275;28;20048;-43
2022/03/21 00:31:07;;;;;;;4.40;2.80;;;22.60;32.60;;;;;;5026388;28;20034;-43
2022/03/21 00:33:33;;;;;;;3.60;2.30;;;22.60;32.60;;;;;;5024824;28;20032;-43
2022/03/21 00:35:59;;;;;;;4.22;2.50;;;22.60;32.60;;;;;;5025620;28;20036;-42
2022/03/21 00:38:26;;;;;;;4.10;2.40;;;22.60;32.60;;;;;;5025195;28;20022;-43
2022/03/21 00:40:52;;;;;;;4.60;2.72;;;22.60;32.60;;;;;;5025994;28;20500;-43
2022/03/21 00:43:23;;;;;;;4.28;2.60;;;22.60;32.60;;;;;;5025618;28;20025;-43
2022/03/21 00:45:52;;;;;;;4.70;3.10;;;22.60;32.60;;;;;;5025788;28;20703;-43
2022/03/21 00:48:18;;;;;;;4.25;2.60;;;22.60;32.50;;;;;;5025671;28;20025;-43
2022/03/21 00:50:44;;;;;;;5.88;2.97;;;22.50;32.50;;;;;;5024715;28;20116;-44
2022/03/21 00:53:10;;;;;;;3.80;2.33;;;22.50;32.60;;;;;;5025637;28;20120;-43
2022/03/21 00:55:36;;;;;;;3.85;2.60;;;22.50;32.60;;;;;;5025712;28;20104;-44
2022/03/21 00:58:02;;;;;;;4.15;2.70;;;22.50;32.60;;;;;;5025246;28;20029;-43
2022/03/21 01:00:29;;;;;;;4.20;2.70;;;22.50;32.50;;;;;;5024270;28;20331;-43
2022/03/21 01:02:57;;;;;;;4.03;2.63;;;22.50;32.50;;;;;;5025448;28;20600;-43
2022/03/21 01:05:22;;;;;;;3.60;2.50;;;22.50;32.50;;;;;;5025421;28;20033;-43
2022/03/21 01:07:49;;;;;;;4.05;2.50;;;22.50;32.50;;;;;;5025225;28;20043;-43
2022/03/21 01:10:18;;;;;;;4.30;2.90;;;22.50;32.50;;;;;;5023754;28;20366;-43
2022/03/21 01:12:44;;;;;;;3.88;2.30;;;22.50;32.50;;;;;;5025284;28;20397;-43
2022/03/21 01:15:14;;;;;;;4.00;2.63;;;22.40;32.40;;;;;;5025477;28;20084;-43
2022/03/21 01:17:42;;;;;;;4.20;2.72;;;22.40;32.40;;;;;;5025299;28;20108;-43
2022/03/21 01:20:09;;;;;;;3.30;2.10;;;22.40;32.40;;;;;;5025374;28;20029;-43
2022/03/21 01:22:35;;;;;;;4.13;2.42;;;22.40;32.40;;;;;;5025478;28;20108;-44
2022/03/21 01:25:01;;;;;;;3.95;2.55;;;22.40;32.40;;;;;;5025245;28;20121;-44
2022/03/21 01:27:27;;;;;;;4.13;2.60;;;22.40;32.40;;;;;;5024771;28;20033;-43
2022/03/21 01:29:52;;;;;;;4.97;2.92;;;22.40;32.40;;;;;;5025675;28;20131;-43
2022/03/21 01:32:18;;;;;;;3.85;2.58;;;22.40;32.40;;;;;;5025168;28;20056;-43
2022/03/21 01:34:44;;;;;;;4.28;2.72;;;22.40;32.40;;;;;;5025208;28;20025;-43
2022/03/21 01:37:10;;;;;;;3.72;2.20;;;22.40;32.40;;;;;;5024642;28;20032;-43
2022/03/21 01:39:36;;;;;;;4.43;2.75;;;22.40;32.40;;;;;;5025429;28;20071;-43
2022/03/21 01:42:01;;;;;;;4.70;2.88;;;22.40;32.40;;;;;;5023724;28;20513;-43
2022/03/21 01:44:27;;;;;;;3.72;2.17;;;22.30;32.40;;;;;;5024986;28;20034;-43
2022/03/21 01:46:53;;;;;;;3.55;2.17;;;22.30;32.40;;;;;;5024407;28;20029;-43
2022/03/21 01:49:19;;;;;;;4.43;2.25;;;22.30;32.40;;;;;;5024006;28;20563;-44
2022/03/21 01:51:45;;;;;;;4.22;2.63;;;22.30;32.40;;;;;;5024860;28;20072;-43
2022/03/21 01:56:56;;;;;;;3.90;2.22;;;22.30;32.40;;;;;;5024458;28;20025;-43
2022/03/21 01:59:22;;;;;;;3.38;2.05;;;22.30;32.40;;;;;;5024668;28;20018;-43
2022/03/21 02:01:49;;;;;;;3.45;2.35;;;22.30;32.40;;;;;;5024005;28;20779;-44
2022/03/21 02:04:15;;;;;;;3.83;2.47;;;22.30;32.40;;;;;;5024786;28;20028;-43
2022/03/21 02:06:45;;;;;;;3.95;2.25;;;22.30;32.40;;;;;;5024338;28;20117;-43
2022/03/21 02:09:11;;;;;;;3.53;2.05;;;22.30;32.40;;;;;;5024434;28;20021;-43
2022/03/21 02:11:37;;;;;;;4.05;2.40;;;22.20;32.30;;;;;;5024537;28;20025;-44
2022/03/21 02:14:06;;;;;;;3.72;2.33;;;22.30;32.40;;;;;;5022963;28;20128;-44
2022/03/21 02:16:33;;;;;;;3.95;2.35;;;22.30;32.40;;;;;;5024461;28;20033;-43
2022/03/21 02:19:04;;;;;;;3.72;2.42;;;22.30;32.40;;;;;;5024925;28;20025;-43
2022/03/21 02:21:41;;;;;;;3.88;2.00;;;22.30;32.40;;;;;;5024921;28;20021;-43
2022/03/21 02:24:13;;;;;;;3.90;2.42;;;22.20;32.40;;;;;;5024063;28;20427;-43
2022/03/21 02:26:39;;;;;;;3.75;2.22;;;22.20;32.40;;;;;;5024196;28;20230;-43
2022/03/21 02:29:05;;;;;;;3.90;2.20;;;22.20;32.40;;;;;;5023259;28;20400;-44
2022/03/21 02:31:34;;;;;;;4.68;2.17;;;22.20;32.30;;;;;;5022921;28;20501;-44
2022/03/21 02:34:01;;;;;;;3.40;2.10;;;22.20;32.30;;;;;;5024699;28;20469;-44
2022/03/21 02:36:27;;;;;;;4.00;2.33;;;22.20;32.40;;;;;;5023926;28;20037;-43
2022/03/21 02:38:56;;;;;;;3.97;2.40;;;22.20;32.30;;;;;;5024222;28;20553;-43
2022/03/21 02:41:22;;;;;;;3.80;2.20;;;22.20;32.40;;;;;;5024305;28;20547;-43
2022/03/21 02:43:56;;;;;;;3.38;2.08;;;22.20;32.40;;;;;;5023992;28;20037;-43
2022/03/21 02:46:22;;;;;;;3.10;1.90;;;22.20;32.30;;;;;;5024192;28;20104;-44
2022/03/21 02:48:49;;;;;;;3.65;2.40;;;22.20;32.30;;;;;;5022908;28;20045;-43
2022/03/21 02:51:17;;;;;;;3.63;2.13;;;22.20;32.30;;;;;;5024167;28;20036;-43
2022/03/21 02:53:45;;;;;;;3.15;1.80;;;22.20;32.30;;;;;;5023921;28;20045;-43
2022/03/21 02:56:11;;;;;;;3.38;2.10;;;22.10;32.30;;;;;;5023378;28;20026;-43
2022/03/21 02:58:36;;;;;;;3.88;2.38;;;22.20;32.30;;;;;;5024095;28;20052;-44
2022/03/21 03:01:10;;;;;;;4.15;2.53;;;22.10;32.30;;;;;;5024777;28;20632;-43
2022/03/21 03:03:36;;;;;;;3.50;1.95;;;22.10;32.30;;;;;;5027643;28;20045;-43
2022/03/21 03:06:02;;;;;;;3.90;2.17;;;22.10;32.30;;;;;;5027487;28;20029;-43
2022/03/21 03:08:29;;;;;;;3.60;2.03;;;22.10;32.30;;;;;;5027774;28;20080;-43
2022/03/21 03:10:55;;;;;;;3.92;2.35;;;22.10;32.30;;;;;;5026372;28;20037;-43
2022/03/21 03:13:21;;;;;;;3.90;2.20;;;22.10;32.30;;;;;;5027107;28;20061;-42
2022/03/21 03:15:50;;;;;;;4.00;2.10;;;22.10;32.30;;;;;;5008960;28;20052;-43
2022/03/21 03:18:16;;;;;;;3.28;1.90;;;22.10;32.30;;;;;;5027863;28;20463;-43
2022/03/21 03:20:58;;;;;;;3.38;2.00;;;22.10;32.30;;;;;;5027933;28;20029;-44
2022/03/21 03:23:26;;;;;;;3.80;2.35;;;22.10;32.30;;;;;;5028000;28;20029;-44
2022/03/21 03:26:03;;;;;;;3.40;2.17;;;22.10;32.30;;;;;;5025600;28;20033;-44
2022/03/21 03:28:31;;;;;;;3.65;2.03;;;22.00;32.20;;;;;;5027570;28;20397;-44
2022/03/21 03:30:58;;;;;;;3.17;1.98;;;22.00;32.20;;;;;;5027737;28;20037;-44
2022/03/21 03:33:24;;;;;;;4.43;2.42;;;22.10;32.30;;;;;;5027211;28;20040;-43
2022/03/21 03:35:51;;;;;;;3.40;2.20;;;22.00;32.20;;;;;;5027415;28;20079;-43
2022/03/21 03:38:17;;;;;;;3.70;2.05;;;22.10;32.30;;;;;;5027247;28;20040;-44
2022/03/21 03:40:44;;;;;;;3.55;2.25;;;22.00;32.20;;;;;;5026366;28;20041;-43
2022/03/21 03:43:14;;;;;;;4.28;2.53;;;22.00;32.20;;;;;;5027379;28;20033;-44
2022/03/21 03:45:40;;;;;;;4.18;2.15;;;22.00;32.20;;;;;;5027158;28;20452;-44
2022/03/21 03:48:05;;;;;;;3.80;2.20;;;22.00;32.10;;;;;;5026859;28;20251;-44
2022/03/21 03:50:31;;;;;;;3.80;2.00;;;22.00;32.20;;;;;;5026685;28;20130;-43
2022/03/21 03:52:57;;;;;;;3.10;1.90;;;22.00;32.20;;;;;;5026912;28;20036;-44
2022/03/21 03:55:23;;;;;;;4.10;2.45;;;22.00;32.20;;;;;;5026459;28;20040;-44
2022/03/21 03:57:49;;;;;;;3.70;2.17;;;22.00;32.20;;;;;;5026880;28;20068;-43
2022/03/21 04:00:16;;;;;;;4.05;2.30;;;22.00;32.10;;;;;;5025281;28;20029;-43
2022/03/21 04:05:27;;;;;;;3.92;2.40;;;21.90;32.10;;;;;;5026685;28;20123;-43
2022/03/21 04:07:53;;;;;;;3.33;2.10;;;21.90;32.20;;;;;;5026158;28;20668;-43
2022/03/21 04:10:22;;;;;;;3.70;2.20;;;21.90;32.10;;;;;;5024255;28;20037;-43
2022/03/21 04:12:51;;;;;;;3.80;2.13;;;21.90;32.10;;;;;;5026043;28;20022;-47
2022/03/21 04:15:18;;;;;;;3.17;1.88;;;21.90;32.10;;;;;;5025442;28;20030;-43
2022/03/21 04:17:44;;;;;;;3.65;2.10;;;21.90;32.10;;;;;;5025149;28;20096;-43
2022/03/21 04:20:11;;;;;;;3.33;2.03;;;21.90;32.20;;;;;;5026786;28;20034;-43
2022/03/21 04:22:37;;;;;;;3.00;1.80;;;21.90;32.10;;;;;;5026783;28;20032;-44
2022/03/21 04:25:04;;;;;;;4.63;2.35;;;21.90;32.10;;;;;;5026451;28;20112;-44
2022/03/21 04:27:30;;;;;;;3.63;2.28;;;21.90;32.50;;;;;;5024544;28;20299;-44
2022/03/21 04:29:56;;;;;;;3.88;2.50;;;21.90;32.10;;;;;;5026337;28;20108;-43
2022/03/21 04:32:22;;;;;;;3.88;2.30;;;21.90;32.10;;;;;;5025957;28;20028;-44
2022/03/21 04:34:48;;;;;;;4.18;2.15;;;21.90;32.10;;;;;;5026140;28;20029;-43
2022/03/21 04:37:13;;;;;;;3.35;2.03;;;21.90;32.10;;;;;;5025896;28;20443;-44
2022/03/21 04:39:39;;;;;;;4.50;2.25;;;21.90;32.10;;;;;;5026071;28;20026;-42
2022/03/21 04:42:05;;;;;;;3.50;2.08;;;21.90;32.10;;;;;;5026433;28;20041;-43
2022/03/21 04:44:31;;;;;;;3.80;2.40;;;21.90;32.00;;;;;;5025985;28;20501;-43
2022/03/21 04:46:57;;;;;;;3.63;2.17;;;21.90;32.10;;;;;;5025558;28;20025;-43
2022/03/21 04:49:22;;;;;;;3.55;2.10;;;21.80;32.00;;;;;;5025722;28;20044;-43
2022/03/21 04:51:48;;;;;;;6.65;2.85;;;21.80;32.00;;;;;;5024678;28;20616;-43
2022/03/21 04:54:14;;;;;;;4.00;2.50;;;21.80;32.00;;;;;;5025485;28;20018;-44
2022/03/21 04:56:40;;;;;;;3.25;2.10;;;21.80;32.00;;;;;;5024416;28;20068;-43
2022/03/21 04:59:07;;;;;;;3.33;1.88;;;21.80;32.00;;;;;;5024217;28;20048;-44
2022/03/21 05:01:33;;;;;;;3.80;2.15;;;21.80;32.00;;;;;;5025471;28;20079;-44
2022/03/21 05:04:00;;;;;;;3.83;2.30;;;21.80;32.00;;;;;;5025162;28;20037;-44
2022/03/21 05:06:26;;;;;;;3.80;2.58;;;21.80;32.00;;;;;;5023846;28;20048;-43
2022/03/21 05:08:51;;;;;;;3.78;2.28;;;21.80;32.00;;;;;;5025457;28;20036;-43
2022/03/21 05:11:17;;;;;;;3.63;2.13;;;21.80;31.90;;;;;;5025251;28;20033;-43
2022/03/21 05:13:43;;;;;;;3.70;2.50;;;21.80;32.00;;;;;;5025136;28;20029;-44
2022/03/21 05:16:09;;;;;;;3.47;2.25;;;21.80;32.00;;;;;;5024982;28;20022;-43
2022/03/21 05:18:35;;;;;;;3.20;2.05;;;21.80;32.10;;;;;;5025454;28;20041;-45
2022/03/21 05:21:05;;;;;;;3.53;1.90;;;21.80;32.10;;;;;;5025422;28;20025;-43
2022/03/21 05:31:45;;;;;;;3.45;2.10;;;21.90;32.40;;;;;;5025206;28;20100;-44
2022/03/21 05:36:54;;;;;;;3.80;2.28;;;21.90;32.40;;;;;;5023663;28;20018;-44
2022/03/21 05:39:23;;;;;;;3.88;2.03;;;22.00;32.30;;;;;;5024037;28;20040;-43
2022/03/21 05:41:52;;;;;;;3.40;2.03;;;22.10;32.30;;;;;;5024324;28;20060;-44
2022/03/21 05:44:19;;;;;;;3.30;2.10;;;22.10;32.30;;;;;;5023640;28;20021;-43
2022/03/21 05:46:45;;;;;;;3.60;2.25;;;22.20;32.30;;;;;;5023995;28;20106;-43
2022/03/21 05:49:10;;;;;;;3.65;2.13;;;22.30;32.30;;;;;;5023406;28;20104;-43
2022/03/21 05:51:40;;;;;;;3.55;2.20;;;22.40;32.10;;;;;;5023524;28;20036;-43
2022/03/21 05:54:08;;;;;;;3.80;2.20;;;22.40;32.10;;;;;;5023328;28;20448;-43
2022/03/21 05:56:35;;;;;;;3.55;2.17;;;22.50;31.90;;;;;;5022390;28;20030;-43
2022/03/21 06:00:20;;;;;;;4.10;2.20;;;22.50;31.90;;;;;;5022759;28;20412;-42
2022/03/21 06:01:48;;;;;;;3.08;1.90;;;22.60;31.80;;;;;;5021571;28;20029;-43
2022/03/21 06:04:15;;;;;;;4.00;2.38;;;22.70;32.00;;;;;;5022043;28;20041;-44
2022/03/21 06:06:41;;;;;;;6.20;2.95;;;22.80;32.30;;;;;;5021807;28;20053;-43
2022/03/21 06:09:07;;;;;;;4.38;2.60;;;22.80;32.50;;;;;;5023092;28;20486;-43
2022/03/21 06:11:34;;;;;;;5.32;2.90;;;22.80;32.70;;;;;;5022376;28;20263;-43
2022/03/21 06:14:00;;;;;;;3.95;2.80;;;22.90;32.80;;;;;;5021987;28;20118;-44
2022/03/21 06:16:26;;;;;;;5.63;3.30;;;23.00;32.70;;;;;;5020552;28;20810;-44
2022/03/21 06:18:52;;;;;;;4.90;2.92;;;23.00;32.60;;;;;;5023444;28;20109;-44
2022/03/21 06:21:17;;;;;;;5.80;3.30;;;23.10;32.50;;;;;;5023474;28;20112;-44
2022/03/21 06:23:43;;;;;;;5.88;3.28;;;23.10;32.30;;;;;;5024059;28;20055;-44
2022/03/21 06:26:09;;;;;;;5.57;2.83;;;23.20;32.90;;;;;;5023198;28;20099;-43
2022/03/21 06:28:36;;;;;;;4.43;2.85;;;23.20;32.00;;;;;;5023838;28;20057;-44
2022/03/21 06:31:02;;;;;;;4.28;2.50;;;23.30;32.10;;;;;;5023783;28;20085;-43
2022/03/21 06:33:30;;;;;;;4.78;3.08;;;23.40;32.10;;;;;;5026056;28;20038;-43
2022/03/21 06:35:57;;;;;;;4.75;3.08;;;23.40;32.00;;;;;;5019927;28;20462;-43
2022/03/21 06:38:24;;;;;;;4.22;2.75;;;23.50;31.90;;;;;;5022474;28;20020;-43
2022/03/21 06:40:50;;;;;;;4.68;2.83;;;23.50;31.80;;;;;;5035778;28;20029;-43
2022/03/21 06:43:17;;;;;;;4.53;2.70;;;23.50;31.70;;;;;;5028082;28;20035;-43
2022/03/21 06:45:43;;;;;;;4.63;2.65;;;23.60;31.60;;;;;;5027449;28;20029;-44
2022/03/21 06:48:09;;;;;;;5.05;3.00;;;23.60;31.60;;;;;;5026431;28;20037;-43
2022/03/21 06:50:35;;;;;;;4.43;2.85;;;23.60;31.50;;;;;;5027908;28;20242;-44
2022/03/21 06:53:01;;;;;;;4.53;2.72;;;23.70;31.50;;;;;;5045508;28;20595;-44
2022/03/21 06:55:27;;;;;;;5.18;2.65;;;23.70;31.40;;;;;;5039362;28;20033;-43
2022/03/21 06:57:55;;;;;;;4.68;2.63;;;23.70;31.40;;;;;;5027106;28;20492;-43
2022/03/21 07:00:21;;;;;;;4.53;3.13;;;23.70;31.40;;;;;;5026794;28;20025;-44
2022/03/21 07:02:46;;;;;;;4.63;2.90;;;23.70;31.40;;;;;;5026104;28;20036;-43
2022/03/21 07:05:12;;;;;;;4.43;2.70;;;23.70;31.30;;;;;;5027075;28;20057;-46
2022/03/21 07:07:38;;;;;;;4.57;2.88;;;23.80;31.20;;;;;;5009491;28;20128;-46
2022/03/21 07:10:05;;;;;;;4.03;2.50;;;23.80;31.30;;;;;;5022596;28;20044;-45
2022/03/21 07:12:34;;;;;;;4.38;2.67;;;23.80;31.30;;;;;;5026734;28;20029;-45
2022/03/21 07:15:00;;;;;;;5.82;3.00;;;23.80;31.20;;;;;;5026135;28;20076;-44
2022/03/21 07:17:26;;;;;;;5.25;2.75;;;23.80;31.20;;;;;;5026168;28;20025;-46
2022/03/21 07:19:52;;;;;;;4.55;2.35;;;23.80;31.10;;;;;;5026631;28;20036;-45
2022/03/21 07:22:18;;;;;;;5.20;3.05;;;23.80;31.00;;;;;;5026406;28;20063;-45
2022/03/21 07:24:44;;;;;;;5.57;3.17;;;23.80;31.00;;;;;;5026228;28;20025;-45
2022/03/21 07:27:12;;;;;;;4.75;2.70;;;23.80;30.90;;;;;;5025757;28;20082;-45
2022/03/21 07:29:37;;;;;;;6.00;3.60;;;23.80;30.90;;;;;;5024970;28;20649;-44
2022/03/21 07:32:04;;;;;;;4.97;3.20;;;23.80;30.90;;;;;;5026008;28;20087;-46
2022/03/21 07:34:30;;;;;;;4.53;2.88;;;23.80;31.10;;;;;;5025941;28;20070;-46
2022/03/21 07:36:56;;;;;;;4.95;3.17;;;23.80;30.90;;;;;;5025905;28;20025;-44
2022/03/21 07:39:22;;;;;;;5.05;3.33;;;23.90;30.90;;;;;;5026141;28;20505;-45
2022/03/21 07:41:47;;;;;;;5.70;3.58;;;23.90;30.80;;;;;;5026085;28;20125;-45
2022/03/21 07:47:17;;;;;;;5.15;2.90;;;23.90;30.80;;;;;;5025334;28;20036;-44
2022/03/21 07:49:53;;;;;;;5.32;2.55;;;24.00;30.80;;;;;;5025771;28;20076;-44
2022/03/21 07:52:20;;;;;;;4.75;3.20;;;24.00;30.70;;;;;;5025008;28;20563;-45
2022/03/21 07:54:51;;;;;;;5.38;2.97;;;23.90;30.60;;;;;;5025288;28;20049;-46
2022/03/21 07:57:17;;;;;;;4.72;3.13;;;24.00;30.60;;;;;;5025293;28;20033;-45
2022/03/21 07:59:43;;;;;;;5.10;3.75;;;24.00;30.50;;;;;;5024722;28;20088;-44
2022/03/21 08:02:08;;;;;;;5.60;3.55;;;24.00;30.50;;;;;;5026002;28;20109;-45
2022/03/21 08:04:34;;;;;;;4.93;3.30;;;24.00;30.50;;;;;;5026031;28;20067;-45
2022/03/21 08:07:00;;;;;;;5.60;3.55;;;24.00;30.40;;;;;;5025697;28;20060;-46
2022/03/21 08:09:29;;;;;;;4.68;3.05;;;24.00;30.50;;;;;;5026011;28;20037;-44
2022/03/21 08:11:57;;;;;;;4.80;2.92;;;24.00;30.40;;;;;;5025215;28;20551;-46
2022/03/21 08:14:23;;;;;;;5.22;3.42;;;24.00;30.40;;;;;;5025906;28;20491;-45
2022/03/21 08:16:50;;;;;;;6.20;3.30;;;24.00;30.30;;;;;;5025335;28;20109;-46
2022/03/21 08:19:16;;;;;;;5.18;3.35;;;24.00;30.30;;;;;;5024082;28;20041;-46
2022/03/21 08:21:42;;;;;;;6.00;3.47;;;24.00;30.30;;;;;;5025276;28;20045;-45
2022/03/21 08:24:08;;;;;;;5.72;3.35;;;24.00;30.30;;;;;;5025434;28;20036;-46
2022/03/21 08:26:35;;;;;;;5.38;3.53;;;24.00;30.20;;;;;;5025075;28;20033;-45
2022/03/21 08:29:01;;;;;;;5.68;3.45;;;24.00;30.20;;;;;;5026285;28;20067;-46
2022/03/21 08:31:27;;;;;;;6.32;3.47;;;24.00;30.10;;;;;;5023916;28;20094;-46
2022/03/21 08:33:52;;;;;;;5.22;3.15;;;24.00;30.10;;;;;;5025208;28;20440;-46
2022/03/21 08:36:18;;;;;;;4.93;2.85;;;24.00;30.10;;;;;;5023865;28;20060;-46
2022/03/21 08:38:44;;;;;;;4.55;3.10;;;24.00;30.10;;;;;;5024687;28;20029;-44
2022/03/21 08:41:11;;;;;;;4.88;2.95;;;24.00;30.10;;;;;;5023869;28;20249;-44
2022/03/21 08:43:37;;;;;;;4.65;2.97;;;24.00;30.10;;;;;;5025651;28;20030;-44
2022/03/21 08:46:03;;;;;;;4.78;3.22;;;24.00;30.00;;;;;;5025196;28;20036;-44
2022/03/21 08:51:15;;;;;;;4.93;3.28;;;24.00;30.00;;;;;;5022529;28;20033;-46
2022/03/21 08:53:41;;;;;;;5.10;2.78;;;24.10;30.10;;;;;;5024838;28;20052;-45
2022/03/21 08:56:06;;;;;;;5.20;3.22;;;24.10;30.10;;;;;;5024993;28;20030;-44
2022/03/21 08:58:33;;;;;;;4.53;2.80;;;24.10;30.00;;;;;;5024571;28;20025;-45
2022/03/21 09:00:58;;;;;;;5.05;3.20;;;24.10;30.00;;;;;;5025272;28;20627;-45
2022/03/21 09:03:24;;;;;;;5.68;3.30;;;24.00;29.90;;;;;;5025429;28;20099;-44
2022/03/21 09:05:50;;;;;;;5.13;3.00;;;24.10;30.00;;;;;;5025521;28;20196;-44
2022/03/21 09:08:17;;;;;;;4.88;2.58;;;24.10;30.00;;;;;;5025116;28;20048;-46
2022/03/21 09:10:43;;;;;;;6.40;2.78;;;24.10;29.90;;;;;;5025105;28;20559;-46
2022/03/21 09:13:08;;;;;;;5.78;3.20;;;24.00;29.80;;;;;;5024757;28;20057;-45
2022/03/21 09:15:34;;;;;;;4.45;2.78;;;24.00;29.70;;;;;;5023788;28;20743;-44
2022/03/21 09:18:02;;;;;;;4.53;2.80;;;24.10;29.90;;;;;;5024345;28;20116;-46
2022/03/21 09:20:28;;;;;;;4.20;2.85;;;24.10;29.90;;;;;;5025246;28;20025;-45
2022/03/21 09:22:53;;;;;;;4.82;2.88;;;24.10;29.80;;;;;;5024343;28;20030;-45
2022/03/21 09:25:19;;;;;;;6.07;3.13;;;24.00;29.70;;;;;;5024727;28;20116;-44
2022/03/21 09:27:45;;;;;;;5.18;3.00;;;24.10;29.80;;;;;;5024227;28;20041;-46
2022/03/21 09:30:11;;;;;;;3.85;2.30;;;24.10;29.70;;;;;;5024801;28;20520;-46
2022/03/21 09:32:37;;;;;;;3.80;2.55;;;24.00;29.60;;;;;;5024965;28;20021;-46
2022/03/21 09:35:05;;;;;;;4.55;2.53;;;24.10;29.70;;;;;;5024743;28;20025;-45
2022/03/21 09:37:32;;;;;;;4.25;2.80;;;24.10;29.70;;;;;;5024316;28;20556;-44
2022/03/21 09:39:58;;;;;;;4.93;2.85;;;24.10;29.70;;;;;;5023202;28;20029;-45
2022/03/21 09:42:25;;;;;;;4.80;2.45;;;24.10;29.70;;;;;;5024794;28;20037;-45
2022/03/21 09:44:53;;;;;;;5.10;3.13;;;24.10;29.70;;;;;;5024858;28;20064;-45
2022/03/21 09:50:13;;;;;;;4.10;2.42;;;24.10;29.70;;;;;;5023240;28;20044;-47
2022/03/21 09:52:40;;;;;;;4.85;2.40;;;24.10;29.80;;;;;;5004694;28;20080;-46
2022/03/21 09:55:07;;;;;;;4.25;2.50;;;24.10;29.70;;;;;;5005355;28;20029;-43
2022/03/21 09:57:34;;;;;;;5.30;2.80;;;24.10;29.70;;;;;;5022579;28;20230;-43
2022/03/21 10:00:00;;;;;;;3.63;2.20;;;24.10;29.70;;;;;;5023777;28;20109;-43
2022/03/21 10:02:26;;;;;;;3.83;2.42;;;24.10;29.60;;;;;;5024094;28;20107;-43
2022/03/21 10:04:52;;;;;;;5.90;2.42;;;24.10;29.60;;;;;;5023939;28;20034;-44
2022/03/21 10:07:28;;;;;;;3.97;2.38;;;24.10;29.60;;;;;;5023445;28;20026;-45
2022/03/21 10:10:12;;;;;;;4.03;2.53;;;24.10;29.60;;;;;;5023446;28;20033;-43
2022/03/21 10:12:39;;;;;;;4.40;2.90;;;24.10;29.70;;;;;;5023021;28;20119;-43
2022/03/21 10:15:07;;;;;;;4.28;2.83;;;24.10;29.60;;;;;;5022883;28;20045;-44
2022/03/21 10:17:33;;;;;;;4.38;2.20;;;24.10;29.60;;;;;;5022487;28;20021;-43
2022/03/21 10:19:59;;;;;;;4.50;2.30;;;24.10;29.60;;;;;;5023022;28;20025;-44
2022/03/21 10:22:33;;;;;;;3.92;2.50;;;24.10;29.50;;;;;;5022920;28;20536;-43
2022/03/21 10:25:05;;;;;;;4.05;2.10;;;24.10;29.50;;;;;;5023292;28;20042;-44
2022/03/21 10:27:33;;;;;;;3.20;2.10;;;24.10;29.50;;;;;;5022710;28;20441;-44
2022/03/21 10:30:02;;;;;;;3.70;2.17;;;24.10;29.50;;;;;;5023240;28;20045;-44
2022/03/21 10:32:42;;;;;;;3.85;2.20;;;24.10;29.60;;;;;;5022479;28;20065;-44
2022/03/21 10:35:11;;;;;;;3.58;2.10;;;24.10;29.50;;;;;;5022959;28;20033;-44
2022/03/21 10:37:50;;;;;;;3.63;1.98;;;24.10;29.50;;;;;;5023833;28;20740;-44
2022/03/21 10:40:24;;;;;;;3.38;2.00;;;24.10;29.50;;;;;;5023086;28;20079;-44
2022/03/21 10:42:55;;;;;;;3.33;1.90;;;24.10;29.50;;;;;;5023376;28;20038;-43
2022/03/21 10:45:45;;;;;;;3.60;2.10;;;24.20;29.60;;;;;;5023990;28;20041;-44
2022/03/21 10:48:13;;;;;;;4.05;2.45;;;24.20;29.50;;;;;;5018151;28;20528;-44
2022/03/21 10:50:42;;;;;;;3.80;2.20;;;24.20;29.50;;;;;;5023861;28;20048;-43
2022/03/21 10:53:22;;;;;;;3.63;2.15;;;24.20;29.40;;;;;;5023554;28;20032;-45
2022/03/21 10:56:00;;;;;;;3.92;2.40;;;24.20;29.40;;;;;;5023483;28;20557;-44
2022/03/21 10:58:37;;;;;;;3.40;2.00;;;24.20;29.40;;;;;;5022319;28;20499;-44
2022/03/21 11:01:13;;;;;;;3.42;1.85;;;24.20;29.40;;;;;;5024003;28;20528;-43
2022/03/21 11:03:41;;;;;;;3.33;1.95;;;24.20;29.40;;;;;;5023496;28;20497;-44
2022/03/21 11:06:09;;;;;;;3.03;1.83;;;24.20;29.40;;;;;;5023734;28;20072;-43
2022/03/21 11:08:36;;;;;;;3.33;2.10;;;24.20;29.40;;;;;;5023866;28;20025;-44
2022/03/21 11:11:06;;;;;;;4.13;2.10;;;24.20;29.40;;;;;;5023723;28;20044;-43
2022/03/21 11:13:32;;;;;;;3.72;2.35;;;24.20;29.50;;;;;;5023098;28;20044;-44
2022/03/21 11:15:58;;;;;;;4.07;2.13;;;24.20;29.40;;;;;;5023798;28;20021;-44
2022/03/21 11:18:27;;;;;;;3.83;1.80;;;24.20;29.40;;;;;;5023525;28;20026;-43
2022/03/21 11:20:53;;;;;;;3.60;2.10;;;24.20;29.30;;;;;;5023792;28;20346;-43
2022/03/21 11:23:19;;;;;;;4.25;2.53;;;24.20;29.30;;;;;;5026867;28;20033;-44
2022/03/21 11:25:50;;;;;;;3.47;1.92;;;24.20;29.30;;;;;;5026683;28;20042;-44
2022/03/21 11:28:50;;;;;;;3.60;1.67;;;24.20;29.30;;;;;;5027067;28;20506;-45
2022/03/21 11:31:35;;;;;;;3.40;1.92;;;24.20;29.30;;;;;;5026965;28;20523;-44
2022/03/21 11:34:32;;;;;;;4.07;2.13;;;24.20;29.30;;;;;;5026887;28;20100;-44
2022/03/21 11:36:58;;;;;;;3.83;2.00;;;24.20;29.30;;;;;;5026605;28;20029;-44
2022/03/21 11:39:26;;;;;;;3.22;1.98;;;24.20;29.20;;;;;;5025331;28;20024;-44
2022/03/21 11:42:08;;;;;;;3.30;2.08;;;24.20;29.20;;;;;;5026398;28;20026;-43
2022/03/21 11:44:35;;;;;;;3.58;2.10;;;24.20;29.20;;;;;;5027057;28;20036;-44
2022/03/21 11:47:21;;;;;;;3.00;1.80;;;24.20;29.10;;;;;;5026535;28;20026;-44
2022/03/21 11:49:47;;;;;;;3.03;1.85;;;24.20;29.20;;;;;;5026541;28;20041;-44
2022/03/21 11:52:13;;;;;;;3.20;1.75;;;24.20;29.00;;;;;;5026708;28;20049;-44
2022/03/21 11:54:40;;;;;;;3.90;2.20;;;24.20;29.10;;;;;;5026456;28;20032;-44
2022/03/21 11:57:05;;;;;;;4.00;2.13;;;24.20;29.10;;;;;;5026138;28;20029;-43
2022/03/21 11:59:34;;;;;;;3.80;2.03;;;24.20;29.10;;;;;;5025460;28;20037;-43
2022/03/21 12:02:23;;;;;;;3.72;1.92;;;24.20;29.00;;;;;;5026681;28;20076;-45
2022/03/21 12:05:03;;;;;;;3.50;1.77;;;24.20;29.10;;;;;;5006327;28;20592;-44
2022/03/21 12:07:31;;;;;;;3.78;2.28;;;24.20;29.10;;;;;;5006388;28;20057;-43
2022/03/21 12:09:57;;;;;;;3.53;1.80;;;24.20;29.10;;;;;;5006637;28;20045;-44
2022/03/21 12:12:49;;;;;;;3.20;1.90;;;24.20;29.10;;;;;;5024365;28;20116;-44
2022/03/21 12:15:29;;;;;;;3.92;2.00;;;24.20;29.20;;;;;;5026270;28;20025;-45
2022/03/21 12:17:55;;;;;;;4.63;1.90;;;24.30;29.30;;;;;;5026080;28;20026;-43
2022/03/21 12:20:23;;;;;;;3.40;1.70;;;24.30;29.20;;;;;;5026257;28;20026;-44
2022/03/21 12:22:50;;;;;;;3.08;1.58;;;24.30;29.10;;;;;;5024732;28;20034;-43
2022/03/21 12:25:29;;;;;;;3.45;1.85;;;24.30;29.20;;;;;;5026330;28;20049;-44
2022/03/21 12:28:16;;;;;;;3.35;1.65;;;24.30;29.10;;;;;;5024270;28;20037;-44
2022/03/21 12:30:42;;;;;;;3.13;1.80;;;24.40;29.10;;;;;;5025906;28;20025;-44
2022/03/21 12:33:13;;;;;;;3.45;1.73;;;24.40;29.00;;;;;;5024492;28;20087;-43
2022/03/21 12:35:45;;;;;;;4.03;2.35;;;24.40;28.90;;;;;;5024740;28;20059;-43
2022/03/21 12:38:22;;;;;;;3.35;1.85;;;24.40;28.90;;;;;;5025387;28;20079;-44
2022/03/21 12:40:50;;;;;;;2.80;1.90;;;24.40;29.00;;;;;;5009455;28;20030;-44
2022/03/21 12:43:17;;;;;;;3.75;2.10;;;24.40;28.90;;;;;;5025467;28;20079;-43
2022/03/21 12:45:44;;;;;;;3.03;1.80;;;24.40;28.80;;;;;;5025357;28;20044;-44
2022/03/21 12:48:14;;;;;;;3.42;2.00;;;24.50;28.80;;;;;;5025539;28;20076;-44
2022/03/21 12:50:40;;;;;;;2.95;1.63;;;24.50;28.80;;;;;;5026082;28;20037;-44
2022/03/21 12:53:12;;;;;;;2.85;1.55;;;24.60;28.80;;;;;;5025376;28;20037;-44
2022/03/21 12:55:38;;;;;;;3.00;1.60;;;24.60;28.70;;;;;;5025269;28;20548;-45
2022/03/21 12:58:13;;;;;;;2.70;1.73;;;24.60;28.70;;;;;;5023146;28;20179;-44
2022/03/21 13:00:42;;;;;;;3.40;1.70;;;24.60;28.70;;;;;;5025066;28;20029;-44
2022/03/21 13:03:07;;;;;;;3.63;2.03;;;24.60;28.70;;;;;;5025584;28;20400;-44
2022/03/21 13:11:50;;;;;;;3.08;1.58;;;24.70;28.70;;;;;;5002442;28;20545;-44
2022/03/21 13:14:18;;;;;;;3.20;1.58;;;24.70;28.60;;;;;;5020503;28;20061;-44
2022/03/21 13:17:03;;;;;;;3.60;1.75;;;24.80;28.60;;;;;;5023985;28;20022;-44
2022/03/21 13:19:33;;;;;;;3.40;1.83;;;24.80;28.60;;;;;;5024409;28;20504;-44
2022/03/21 13:22:04;;;;;;;2.65;1.60;;;24.80;28.50;;;;;;5004226;28;20448;-44
2022/03/21 13:24:47;;;;;;;3.20;1.55;;;24.90;28.50;;;;;;5005792;28;20037;-44